createdAt,value
2022-10-29T00:00:10.299Z,61.17
2022-10-29T00:01:12.153Z,60.99
2022-10-29T00:02:13.889Z,61.64
2022-10-29T00:03:15.597Z,61.05
2022-10-29T00:04:17.343Z,60.42
2022-10-29T00:05:19.135Z,59.98
2022-10-29T00:06:20.822Z,60.14
2022-10-29T00:07:22.452Z,60.33
2022-10-29T00:08:24.612Z,61.16
2022-10-29T00:09:26.260Z,61.09
2022-10-29T00:10:28.903Z,61.37
2022-10-29T00:11:30.614Z,61.63
2022-10-29T00:12:32.338Z,61.35
2022-10-29T00:13:34.662Z,62.16
2022-10-29T00:14:36.501Z,62.19
2022-10-29T00:15:41.161Z,61.99
2022-10-29T00:16:42.862Z,62.21
2022-10-29T00:17:44.680Z,61.88
2022-10-29T00:18:46.816Z,62.03
2022-10-29T00:19:49.131Z,62.27
2022-10-29T00:20:59.492Z,61.58
2022-10-29T00:22:01.176Z,60.81
2022-10-29T00:23:02.872Z,61.29
2022-10-29T00:24:04.937Z,60.51
2022-10-29T00:25:06.885Z,61.50
2022-10-29T00:26:08.691Z,61.84
2022-10-29T00:27:10.410Z,61.61
2022-10-29T00:28:12.117Z,61.64
2022-10-29T00:29:13.912Z,62.05
2022-10-29T00:30:16.131Z,62.32
2022-10-29T00:31:19.415Z,61.92
2022-10-29T00:32:21.587Z,61.58
2022-10-29T00:33:23.439Z,62.18
2022-10-29T00:34:25.196Z,61.65
2022-10-29T00:35:26.894Z,61.91
2022-10-29T00:36:30.332Z,62.21
2022-10-29T00:37:32.038Z,63.03
2022-10-29T00:38:35.436Z,62.11
2022-10-29T00:39:37.115Z,61.97
2022-10-29T00:40:38.788Z,62.01
2022-10-29T00:41:40.519Z,61.29
2022-10-29T00:42:42.187Z,61.96
2022-10-29T00:43:48.320Z,61.56
2022-10-29T00:44:51.370Z,62.08
2022-10-29T00:46:11.815Z,61.26
2022-10-29T00:47:23.517Z,62.12
2022-10-29T00:48:28.467Z,62.09
2022-10-29T00:49:33.171Z,61.84
2022-10-29T00:50:35.054Z,61.56
2022-10-29T00:51:38.246Z,61.85
2022-10-29T00:52:45.597Z,61.87
2022-10-29T00:54:11.401Z,62.65
2022-10-29T00:55:15.818Z,62.05
2022-10-29T00:56:17.914Z,61.77
2022-10-29T00:57:29.776Z,61.74
2022-10-29T00:58:32.065Z,62.01
2022-10-29T00:59:33.793Z,61.90
2022-10-29T01:00:35.456Z,62.05
2022-10-29T01:01:38.278Z,61.73
2022-10-29T01:02:40.192Z,61.36
2022-10-29T01:03:42.117Z,60.52
2022-10-29T01:04:45.349Z,60.24
2022-10-29T01:05:48.498Z,60.56
2022-10-29T01:06:50.546Z,59.90
2022-10-29T01:07:52.296Z,60.15
2022-10-29T01:08:54.204Z,59.92
2022-10-29T01:09:56.260Z,60.21
2022-10-29T01:11:28.346Z,60.06
2022-10-29T01:12:33.624Z,60.70
2022-10-29T01:14:15.428Z,59.97
2022-10-29T01:15:47.619Z,60.85
2022-10-29T01:17:17.986Z,60.62
2022-10-29T01:18:37.844Z,60.53
2022-10-29T01:19:58.029Z,61.26
2022-10-29T01:21:33.450Z,60.96
2022-10-29T01:22:50.445Z,60.71
2022-10-29T01:24:26.985Z,60.63
2022-10-29T01:25:56.293Z,60.17
2022-10-29T01:27:39.699Z,60.46
2022-10-29T01:28:47.055Z,59.89
2022-10-29T01:30:06.959Z,59.64
2022-10-29T01:31:23.724Z,59.98
2022-10-29T01:32:30.755Z,59.36
2022-10-29T01:33:55.379Z,58.85
2022-10-29T01:35:13.217Z,58.84
2022-10-29T01:36:33.257Z,59.33
2022-10-29T01:37:40.782Z,59.06
2022-10-29T01:38:49.216Z,58.76
2022-10-29T01:40:23.361Z,58.79
2022-10-29T01:41:47.299Z,58.79
2022-10-29T01:43:02.647Z,58.86
2022-10-29T01:44:12.039Z,58.65
2022-10-29T01:45:19.445Z,58.73
2022-10-29T01:46:34.707Z,58.43
2022-10-29T01:47:47.587Z,59.02
2022-10-29T01:48:53.322Z,59.18
2022-10-29T01:50:01.891Z,58.92
2022-10-29T01:51:09.449Z,58.58
2022-10-29T01:52:15.844Z,59.33
2022-10-29T01:53:18.237Z,59.28
2022-10-29T01:54:19.849Z,59.02
2022-10-29T01:55:30.589Z,59.95
2022-10-29T01:56:32.260Z,59.60
2022-10-29T01:57:35.151Z,59.92
2022-10-29T01:58:38.007Z,59.22
2022-10-29T01:59:54.909Z,59.24
2022-10-29T02:01:15.081Z,59.62
2022-10-29T02:02:48.610Z,59.40
2022-10-29T02:03:59.002Z,59.74
2022-10-29T02:05:24.893Z,60.59
2022-10-29T02:07:05.290Z,59.49
2022-10-29T02:08:13.507Z,59.17
2022-10-29T02:09:28.892Z,59.57
2022-10-29T02:10:45.024Z,58.71
2022-10-29T02:11:54.687Z,59.19
2022-10-29T02:12:57.707Z,59.22
2022-10-29T02:14:06.398Z,60.07
2022-10-29T02:15:10.513Z,59.71
2022-10-29T02:16:12.933Z,60.39
2022-10-29T02:17:14.661Z,60.48
2022-10-29T02:18:17.160Z,60.61
2022-10-29T02:19:19.197Z,60.27
2022-10-29T02:20:20.894Z,59.51
2022-10-29T02:21:22.604Z,59.48
2022-10-29T02:22:24.237Z,60.01
2022-10-29T02:23:25.951Z,60.38
2022-10-29T02:24:27.695Z,59.85
2022-10-29T02:25:29.604Z,59.96
2022-10-29T02:26:31.307Z,59.48
2022-10-29T02:27:32.964Z,59.80
2022-10-29T02:28:34.710Z,59.90
2022-10-29T02:29:36.359Z,59.53
2022-10-29T02:30:38.004Z,58.95
2022-10-29T02:31:39.644Z,59.59
2022-10-29T02:32:41.393Z,59.43
2022-10-29T02:33:43.074Z,59.34
2022-10-29T02:34:44.710Z,59.66
2022-10-29T02:35:46.371Z,58.99
2022-10-29T02:36:48.036Z,59.38
2022-10-29T02:37:50.007Z,59.10
2022-10-29T02:38:51.709Z,58.75
2022-10-29T02:39:53.379Z,59.34
2022-10-29T02:40:55.065Z,59.16
2022-10-29T02:41:56.861Z,58.42
2022-10-29T02:42:58.725Z,59.54
2022-10-29T02:44:00.657Z,59.35
2022-10-29T02:45:02.342Z,59.16
2022-10-29T02:46:15.737Z,60.15
2022-10-29T02:47:17.710Z,59.29
2022-10-29T02:48:19.393Z,59.74
2022-10-29T02:49:21.105Z,59.87
2022-10-29T02:50:22.946Z,59.29
2022-10-29T02:51:24.597Z,60.28
2022-10-29T02:52:26.320Z,60.08
2022-10-29T02:53:27.986Z,59.61
2022-10-29T02:54:29.649Z,59.12
2022-10-29T02:55:31.318Z,60.55
2022-10-29T02:56:33.009Z,60.32
2022-10-29T02:57:34.669Z,60.29
2022-10-29T02:58:36.762Z,61.26
2022-10-29T02:59:38.470Z,61.22
2022-10-29T03:00:40.152Z,62.73
2022-10-29T03:01:41.992Z,62.18
2022-10-29T03:02:43.722Z,62.39
2022-10-29T03:03:45.457Z,62.71
2022-10-29T03:04:47.120Z,62.79
2022-10-29T03:05:49.396Z,62.67
2022-10-29T03:06:51.199Z,62.32
2022-10-29T03:07:52.840Z,63.20
2022-10-29T03:08:54.528Z,63.20
2022-10-29T03:09:56.227Z,63.47
2022-10-29T03:10:57.881Z,62.18
2022-10-29T03:11:59.522Z,62.67
2022-10-29T03:13:01.575Z,62.22
2022-10-29T03:14:03.427Z,63.22
2022-10-29T03:15:05.516Z,62.21
2022-10-29T03:16:07.195Z,62.99
2022-10-29T03:17:08.903Z,63.51
2022-10-29T03:18:10.588Z,63.52
2022-10-29T03:19:12.292Z,64.25
2022-10-29T03:20:14.016Z,64.55
2022-10-29T03:21:15.692Z,64.31
2022-10-29T03:22:17.343Z,64.65
2022-10-29T03:23:19.071Z,65.22
2022-10-29T03:24:20.729Z,64.83
2022-10-29T03:25:22.541Z,65.85
2022-10-29T03:26:24.245Z,65.79
2022-10-29T03:27:25.961Z,66.36
2022-10-29T03:28:30.847Z,66.34
2022-10-29T03:29:32.560Z,66.69
2022-10-29T03:30:34.330Z,66.43
2022-10-29T03:31:35.994Z,66.50
2022-10-29T03:32:41.641Z,66.55
2022-10-29T03:33:43.300Z,65.96
2022-10-29T03:34:45.019Z,66.19
2022-10-29T03:35:46.775Z,66.29
2022-10-29T03:36:48.464Z,66.77
2022-10-29T03:37:51.121Z,66.57
2022-10-29T03:38:52.785Z,67.07
2022-10-29T03:39:55.167Z,66.41
2022-10-29T03:40:57.140Z,66.43
2022-10-29T03:41:58.818Z,65.31
2022-10-29T03:43:00.467Z,64.83
2022-10-29T03:44:02.172Z,65.57
2022-10-29T03:45:04.054Z,65.38
2022-10-29T03:46:06.701Z,65.91
2022-10-29T03:47:09.380Z,66.14
2022-10-29T03:48:11.091Z,67.32
2022-10-29T03:49:12.810Z,67.70
2022-10-29T03:50:14.532Z,66.96
2022-10-29T03:51:16.201Z,66.45
2022-10-29T03:52:17.972Z,65.51
2022-10-29T03:53:19.614Z,64.81
2022-10-29T03:54:21.311Z,63.99
2022-10-29T03:55:22.980Z,65.00
2022-10-29T03:56:24.638Z,64.61
2022-10-29T03:57:26.295Z,65.63
2022-10-29T03:58:28.460Z,65.74
2022-10-29T03:59:30.110Z,65.73
2022-10-29T04:00:31.760Z,65.87
2022-10-29T04:01:33.815Z,65.43
2022-10-29T04:02:35.640Z,65.36
2022-10-29T04:03:38.780Z,65.67
2022-10-29T04:04:40.412Z,65.31
2022-10-29T04:05:42.090Z,64.36
2022-10-29T04:06:43.805Z,64.61
2022-10-29T04:07:45.607Z,64.16
2022-10-29T04:08:47.286Z,64.11
2022-10-29T04:09:49.007Z,64.53
2022-10-29T04:10:51.595Z,64.17
2022-10-29T04:11:53.253Z,63.92
2022-10-29T04:12:55.557Z,63.57
2022-10-29T04:13:57.436Z,64.16
2022-10-29T04:14:59.092Z,63.44
2022-10-29T04:16:00.921Z,63.23
2022-10-29T04:17:02.599Z,63.29
2022-10-29T04:18:04.449Z,63.85
2022-10-29T04:19:06.108Z,63.68
2022-10-29T04:20:19.028Z,64.25
2022-10-29T04:28:42.375Z,63.62
2022-10-29T04:29:39.782Z,63.45
2022-10-29T04:30:41.502Z,63.25
2022-10-29T04:31:43.175Z,64.38
2022-10-29T04:32:44.816Z,63.87
2022-10-29T04:33:46.601Z,63.76
2022-10-29T04:34:48.237Z,64.19
2022-10-29T04:35:54.506Z,63.72
2022-10-29T04:36:56.179Z,64.19
2022-10-29T04:37:57.943Z,64.21
2022-10-29T04:38:59.668Z,64.14
2022-10-29T04:40:01.312Z,63.76
2022-10-29T04:41:03.259Z,63.76
2022-10-29T04:42:04.956Z,64.14
2022-10-29T04:43:06.614Z,63.82
2022-10-29T04:44:08.308Z,63.76
2022-10-29T04:45:10.196Z,63.62
2022-10-29T04:46:12.521Z,64.12
2022-10-29T04:47:14.460Z,64.17
2022-10-29T04:48:16.092Z,64.84
2022-10-29T04:49:17.954Z,64.97
2022-10-29T04:50:19.615Z,64.22
2022-10-29T04:51:26.482Z,64.79
2022-10-29T04:52:28.184Z,64.22
2022-10-29T04:53:29.943Z,64.33
2022-10-29T04:54:31.697Z,64.21
2022-10-29T04:55:37.318Z,63.62
2022-10-29T04:56:38.965Z,63.42
2022-10-29T04:57:40.600Z,63.10
2022-10-29T04:58:42.255Z,62.97
2022-10-29T04:59:43.949Z,63.12
2022-10-29T05:00:46.512Z,63.31
2022-10-29T05:01:48.352Z,62.93
2022-10-29T05:02:51.124Z,63.40
2022-10-29T05:03:55.666Z,62.85
2022-10-29T05:05:00.695Z,63.59
2022-10-29T05:06:04.645Z,63.41
2022-10-29T05:07:06.408Z,62.69
2022-10-29T05:08:09.659Z,63.25
2022-10-29T05:09:11.346Z,62.74
2022-10-29T05:10:13.337Z,64.08
2022-10-29T05:11:15.051Z,64.16
2022-10-29T05:12:16.731Z,63.91
2022-10-29T05:13:18.378Z,63.55
2022-10-29T05:14:20.094Z,63.47
2022-10-29T05:15:21.742Z,63.43
2022-10-29T05:16:23.499Z,64.22
2022-10-29T05:17:25.157Z,64.19
2022-10-29T05:18:26.811Z,64.59
2022-10-29T05:19:28.472Z,64.74
2022-10-29T05:20:30.815Z,64.99
2022-10-29T05:21:32.686Z,64.45
2022-10-29T05:22:34.335Z,64.82
2022-10-29T05:23:36.019Z,64.90
2022-10-29T05:24:37.715Z,64.46
2022-10-29T05:25:41.206Z,64.51
2022-10-29T05:26:44.003Z,64.41
2022-10-29T05:27:45.650Z,64.12
2022-10-29T05:28:51.416Z,64.04
2022-10-29T05:29:53.120Z,64.01
2022-10-29T05:30:54.826Z,63.66
2022-10-29T05:31:56.514Z,63.89
2022-10-29T05:32:59.002Z,63.91
2022-10-29T05:34:00.818Z,63.36
2022-10-29T05:35:02.520Z,63.76
2022-10-29T05:36:04.499Z,63.02
2022-10-29T05:37:06.134Z,63.43
2022-10-29T05:38:09.491Z,62.99
2022-10-29T05:39:11.135Z,63.08
2022-10-29T05:40:13.037Z,63.19
2022-10-29T05:41:14.707Z,63.08
2022-10-29T05:42:16.528Z,63.13
2022-10-29T05:43:18.184Z,62.62
2022-10-29T05:44:19.874Z,62.32
2022-10-29T05:45:21.849Z,62.74
2022-10-29T05:46:23.512Z,62.63
2022-10-29T05:47:25.247Z,63.19
2022-10-29T05:48:26.987Z,62.62
2022-10-29T05:49:28.676Z,62.21
2022-10-29T05:50:31.741Z,62.24
2022-10-29T05:51:33.452Z,62.18
2022-10-29T05:52:35.141Z,61.30
2022-10-29T05:53:37.001Z,61.16
2022-10-29T05:54:38.675Z,61.79
2022-10-29T05:55:41.452Z,61.31
2022-10-29T05:56:43.098Z,60.57
2022-10-29T05:57:44.736Z,60.39
2022-10-29T05:58:49.471Z,61.54
2022-10-29T05:59:51.326Z,60.59
2022-10-29T06:00:53.002Z,60.53
2022-10-29T06:01:54.765Z,60.41
2022-10-29T06:02:57.721Z,60.32
2022-10-29T06:04:01.357Z,61.09
2022-10-29T06:05:03.041Z,60.63
2022-10-29T06:06:04.829Z,60.22
2022-10-29T06:07:06.534Z,60.13
2022-10-29T06:08:08.282Z,59.95
2022-10-29T06:09:09.969Z,60.40
2022-10-29T06:10:11.617Z,60.31
2022-10-29T06:11:13.321Z,60.30
2022-10-29T06:12:14.989Z,60.32
2022-10-29T06:13:19.248Z,60.52
2022-10-29T06:14:21.261Z,59.55
2022-10-29T06:15:23.270Z,59.87
2022-10-29T06:16:24.932Z,59.73
2022-10-29T06:17:27.500Z,59.32
2022-10-29T06:18:29.447Z,59.79
2022-10-29T06:19:31.117Z,60.14
2022-10-29T06:20:32.900Z,59.56
2022-10-29T06:21:35.764Z,59.75
2022-10-29T06:22:37.470Z,58.77
2022-10-29T06:23:39.132Z,59.38
2022-10-29T06:24:40.807Z,59.36
2022-10-29T06:25:42.470Z,59.78
2022-10-29T06:26:44.102Z,59.60
2022-10-29T06:27:45.763Z,58.97
2022-10-29T06:28:47.416Z,57.63
2022-10-29T06:29:49.085Z,58.57
2022-10-29T06:30:51.800Z,58.56
2022-10-29T06:31:53.443Z,58.41
2022-10-29T06:32:55.493Z,58.64
2022-10-29T06:33:57.458Z,59.28
2022-10-29T06:34:59.225Z,60.70
2022-10-29T06:36:01.635Z,60.18
2022-10-29T06:37:03.376Z,60.41
2022-10-29T06:38:10.943Z,60.57
2022-10-29T06:39:13.701Z,60.77
2022-10-29T06:40:15.923Z,61.91
2022-10-29T06:41:17.658Z,62.24
2022-10-29T06:42:19.307Z,59.86
2022-10-29T06:43:21.449Z,57.42
2022-10-29T06:44:23.185Z,56.52
2022-10-29T06:45:24.846Z,55.96
2022-10-29T06:46:26.586Z,54.90
2022-10-29T06:47:28.276Z,51.02
2022-10-29T06:48:29.911Z,51.03
2022-10-29T06:49:31.575Z,51.21
2022-10-29T06:50:33.357Z,49.54
2022-10-29T06:51:35.056Z,46.94
2022-10-29T06:52:37.023Z,48.44
2022-10-29T06:53:38.750Z,47.06
2022-10-29T06:54:40.399Z,45.91
2022-10-29T06:55:42.070Z,44.37
2022-10-29T06:56:43.727Z,44.34
2022-10-29T06:57:45.393Z,43.46
2022-10-29T06:58:47.461Z,42.84
2022-10-29T06:59:49.119Z,42.09
2022-10-29T07:00:50.932Z,40.52
2022-10-29T07:01:52.768Z,39.75
2022-10-29T07:02:55.130Z,39.05
2022-10-29T07:03:56.930Z,38.47
2022-10-29T07:04:58.579Z,37.55
2022-10-29T07:06:00.340Z,36.70
2022-10-29T07:07:02.005Z,36.22
2022-10-29T07:08:03.875Z,36.01
2022-10-29T07:09:05.578Z,35.03
2022-10-29T07:10:08.466Z,34.24
2022-10-29T07:11:10.117Z,34.19
2022-10-29T07:12:11.888Z,33.74
2022-10-29T07:13:13.591Z,32.02
2022-10-29T07:14:15.227Z,31.92
2022-10-29T07:15:17.534Z,31.49
2022-10-29T07:16:19.196Z,31.69
2022-10-29T07:17:20.865Z,31.07
2022-10-29T07:18:22.546Z,31.12
2022-10-29T07:19:24.212Z,30.29
2022-10-29T07:20:27.018Z,30.21
2022-10-29T07:21:28.688Z,30.16
2022-10-29T07:22:34.735Z,29.76
2022-10-29T07:23:36.645Z,29.47
2022-10-29T07:24:38.276Z,29.21
2022-10-29T07:25:40.772Z,28.95
2022-10-29T07:26:42.487Z,28.76
2022-10-29T07:27:44.237Z,28.31
2022-10-29T07:28:45.918Z,28.56
2022-10-29T07:29:47.629Z,27.70
2022-10-29T07:30:58.133Z,26.35
2022-10-29T07:31:59.802Z,26.72
2022-10-29T07:33:01.610Z,26.58
2022-10-29T07:34:03.427Z,26.24
2022-10-29T07:35:05.470Z,26.29
2022-10-29T07:36:07.425Z,26.45
2022-10-29T07:37:09.120Z,25.80
2022-10-29T07:38:12.434Z,26.02
2022-10-29T07:39:14.201Z,24.89
2022-10-29T07:40:16.106Z,25.65
2022-10-29T07:41:17.793Z,25.07
2022-10-29T07:42:19.901Z,25.07
2022-10-29T07:43:22.229Z,25.43
2022-10-29T07:44:23.890Z,25.60
2022-10-29T07:45:25.701Z,24.54
2022-10-29T07:46:27.374Z,23.95
2022-10-29T07:47:29.086Z,24.94
2022-10-29T07:48:30.793Z,24.24
2022-10-29T07:49:32.552Z,24.11
2022-10-29T07:50:34.562Z,23.67
2022-10-29T07:51:36.191Z,23.38
2022-10-29T07:52:37.823Z,22.97
2022-10-29T07:53:40.887Z,22.76
2022-10-29T07:54:42.549Z,22.94
2022-10-29T07:55:44.369Z,21.90
2022-10-29T07:56:47.756Z,22.63
2022-10-29T07:57:58.534Z,22.16
2022-10-29T07:59:00.445Z,22.17
2022-10-29T08:00:02.077Z,21.44
2022-10-29T08:01:03.763Z,21.84
2022-10-29T08:02:05.891Z,21.56
2022-10-29T08:03:08.412Z,21.59
2022-10-29T08:04:10.184Z,21.31
2022-10-29T08:05:11.818Z,21.79
2022-10-29T08:06:13.450Z,21.40
2022-10-29T08:07:15.166Z,21.07
2022-10-29T08:08:17.834Z,21.19
2022-10-29T08:09:19.458Z,20.86
2022-10-29T08:10:22.446Z,20.93
2022-10-29T08:11:24.169Z,21.49
2022-10-29T08:12:25.949Z,21.72
2022-10-29T08:13:27.793Z,21.48
2022-10-29T08:14:29.422Z,21.57
2022-10-29T08:15:32.610Z,22.02
2022-10-29T08:16:34.336Z,21.31
2022-10-29T08:17:35.972Z,20.82
2022-10-29T08:18:37.620Z,21.18
2022-10-29T08:19:39.291Z,21.54
2022-10-29T08:20:41.053Z,20.61
2022-10-29T08:21:42.758Z,21.26
2022-10-29T08:22:44.508Z,20.72
2022-10-29T08:23:46.222Z,20.46
2022-10-29T08:24:47.853Z,19.53
2022-10-29T08:25:49.581Z,20.81
2022-10-29T08:26:51.507Z,20.71
2022-10-29T08:28:04.586Z,21.19
2022-10-29T08:29:06.404Z,19.62
2022-10-29T08:30:09.824Z,19.61
2022-10-29T08:31:11.545Z,20.37
2022-10-29T08:32:13.193Z,19.26
2022-10-29T08:33:14.864Z,20.10
2022-10-29T08:34:16.908Z,19.30
2022-10-29T08:35:18.544Z,19.71
2022-10-29T08:36:20.249Z,20.16
2022-10-29T08:37:22.109Z,20.63
2022-10-29T08:38:23.744Z,19.66
2022-10-29T08:39:25.403Z,19.31
2022-10-29T08:40:49.808Z,18.25
2022-10-29T08:42:03.466Z,19.17
2022-10-29T08:43:36.142Z,18.92
2022-10-29T08:45:03.665Z,18.56
2022-10-29T08:46:15.501Z,18.81
2022-10-29T08:47:21.340Z,18.00
2022-10-29T08:48:35.328Z,18.52
2022-10-29T08:49:47.489Z,18.59
2022-10-29T08:51:00.256Z,18.58
2022-10-29T08:52:11.135Z,18.40
2022-10-29T08:53:23.880Z,18.31
2022-10-29T08:54:31.804Z,18.11
2022-10-29T08:55:37.352Z,18.18
2022-10-29T08:56:44.401Z,17.92
2022-10-29T08:58:14.288Z,18.26
2022-10-29T08:59:20.470Z,18.32
2022-10-29T09:00:27.255Z,18.21
2022-10-29T09:01:29.111Z,17.85
2022-10-29T09:02:30.853Z,17.78
2022-10-29T09:03:32.625Z,18.07
2022-10-29T09:04:36.768Z,18.79
2022-10-29T09:05:50.039Z,19.75
2022-10-29T09:07:17.792Z,17.82
2022-10-29T09:08:19.390Z,18.60
2022-10-29T09:09:39.462Z,18.88
2022-10-29T09:11:05.096Z,18.58
2022-10-29T09:12:25.722Z,17.82
2022-10-29T09:13:51.099Z,18.01
2022-10-29T09:15:09.604Z,17.99
2022-10-29T09:16:20.421Z,18.18
2022-10-29T09:17:38.305Z,17.68
2022-10-29T09:19:01.572Z,17.72
2022-10-29T09:20:18.230Z,17.80
2022-10-29T09:21:44.317Z,18.08
2022-10-29T09:22:55.075Z,17.14
2022-10-29T09:24:00.716Z,17.94
2022-10-29T09:25:20.058Z,17.66
2022-10-29T09:26:27.402Z,18.56
2022-10-29T09:27:48.503Z,17.15
2022-10-29T09:29:16.885Z,16.82
2022-10-29T09:30:21.475Z,17.66
2022-10-29T09:31:25.908Z,17.99
2022-10-29T09:32:35.557Z,18.83
2022-10-29T09:33:38.774Z,18.90
2022-10-29T09:34:47.949Z,17.23
2022-10-29T09:35:55.696Z,17.27
2022-10-29T09:36:57.880Z,18.35
2022-10-29T09:38:05.543Z,18.05
2022-10-29T09:39:21.910Z,18.18
2022-10-29T09:40:29.178Z,17.81
2022-10-29T09:41:33.772Z,17.12
2022-10-29T09:42:41.795Z,17.46
2022-10-29T09:43:46.162Z,16.80
2022-10-29T09:44:51.420Z,17.29
2022-10-29T09:45:59.113Z,17.06
2022-10-29T09:47:09.400Z,17.32
2022-10-29T09:48:20.301Z,16.37
2022-10-29T09:49:42.946Z,16.64
2022-10-29T09:51:18.646Z,16.95
2022-10-29T09:52:25.136Z,18.53
2022-10-29T09:53:26.898Z,18.83
2022-10-29T09:54:31.608Z,18.73
2022-10-29T09:55:41.744Z,17.55
2022-10-29T09:56:47.179Z,17.58
2022-10-29T09:57:52.089Z,17.76
2022-10-29T09:58:59.992Z,20.33
2022-10-29T10:00:08.026Z,18.26
2022-10-29T10:01:09.823Z,17.46
2022-10-29T10:02:39.523Z,17.49
2022-10-29T10:03:46.816Z,17.49
2022-10-29T10:04:51.324Z,17.87
2022-10-29T10:06:12.845Z,16.98
2022-10-29T10:07:19.753Z,16.89
2022-10-29T10:08:21.566Z,17.17
2022-10-29T10:09:23.227Z,17.41
2022-10-29T10:10:25.545Z,16.66
2022-10-29T10:11:44.196Z,17.60
2022-10-29T10:12:48.015Z,17.28
2022-10-29T10:14:00.420Z,16.79
2022-10-29T10:15:25.756Z,19.20
2022-10-29T10:16:29.830Z,17.77
2022-10-29T10:17:53.616Z,17.42
2022-10-29T10:18:55.721Z,16.92
2022-10-29T10:19:57.409Z,17.04
2022-10-29T10:21:15.228Z,17.11
2022-10-29T10:22:22.468Z,18.02
2022-10-29T10:23:40.070Z,17.81
2022-10-29T10:24:43.623Z,17.72
2022-10-29T10:25:45.392Z,17.99
2022-10-29T10:26:47.083Z,17.63
2022-10-29T10:27:48.866Z,16.86
2022-10-29T10:29:11.348Z,18.97
2022-10-29T10:30:18.082Z,17.26
2022-10-29T10:31:19.740Z,18.60
2022-10-29T10:32:25.938Z,17.98
2022-10-29T10:33:27.797Z,18.10
2022-10-29T10:34:32.503Z,17.54
2022-10-29T10:35:36.037Z,17.86
2022-10-29T10:36:42.455Z,17.06
2022-10-29T10:37:44.156Z,17.50
2022-10-29T10:38:49.110Z,17.10
2022-10-29T10:40:04.406Z,16.40
2022-10-29T10:41:09.016Z,17.02
2022-10-29T10:42:25.657Z,16.98
2022-10-29T10:43:27.614Z,16.84
2022-10-29T10:44:29.839Z,17.11
2022-10-29T10:45:37.807Z,18.72
2022-10-29T10:46:42.659Z,18.57
2022-10-29T10:47:50.911Z,17.42
2022-10-29T10:49:02.163Z,17.21
2022-10-29T10:50:30.269Z,16.36
2022-10-29T10:51:36.239Z,17.24
2022-10-29T10:52:38.090Z,16.96
2022-10-29T10:53:41.588Z,16.91
2022-10-29T10:54:55.673Z,17.44
2022-10-29T10:56:00.693Z,17.14
2022-10-29T10:57:04.113Z,17.32
2022-10-29T10:58:38.305Z,18.54
2022-10-29T11:00:17.222Z,18.66
2022-10-29T11:01:48.751Z,19.30
2022-10-29T11:03:01.536Z,18.57
2022-10-29T11:04:43.435Z,19.53
2022-10-29T11:05:57.455Z,19.94
2022-10-29T11:07:05.425Z,19.69
2022-10-29T11:08:13.158Z,19.85
2022-10-29T11:09:30.081Z,19.72
2022-10-29T11:10:38.106Z,20.01
2022-10-29T11:11:47.621Z,20.38
2022-10-29T11:12:55.640Z,21.17
2022-10-29T11:14:01.343Z,21.21
2022-10-29T11:15:16.182Z,20.71
2022-10-29T11:16:31.279Z,20.72
2022-10-29T11:17:40.398Z,20.61
2022-10-29T11:18:54.133Z,20.62
2022-10-29T11:20:31.662Z,20.84
2022-10-29T11:21:39.185Z,21.29
2022-10-29T11:23:18.776Z,21.46
2022-10-29T11:24:39.251Z,21.03
2022-10-29T11:25:45.323Z,21.35
2022-10-29T11:27:11.859Z,22.48
2022-10-29T11:28:21.639Z,22.41
2022-10-29T11:29:49.100Z,22.61
2022-10-29T11:30:58.260Z,23.75
2022-10-29T11:32:18.255Z,23.92
2022-10-29T11:33:35.386Z,24.12
2022-10-29T11:34:58.792Z,24.67
2022-10-29T11:36:16.312Z,24.89
2022-10-29T11:37:29.775Z,24.36
2022-10-29T11:38:43.052Z,24.51
2022-10-29T11:39:57.733Z,24.94
2022-10-29T11:41:06.387Z,24.66
2022-10-29T11:42:09.996Z,24.64
2022-10-29T11:43:13.203Z,24.60
2022-10-29T11:44:18.092Z,24.79
2022-10-29T11:45:32.548Z,24.44
2022-10-29T11:46:49.171Z,25.02
2022-10-29T11:48:04.024Z,25.52
2022-10-29T11:49:40.635Z,25.72
2022-10-29T11:51:16.248Z,25.80
2022-10-29T11:52:56.285Z,26.40
2022-10-29T11:54:25.647Z,27.53
2022-10-29T11:55:41.881Z,26.32
2022-10-29T11:56:58.439Z,26.25
2022-10-29T11:58:15.692Z,26.55
2022-10-29T11:59:32.825Z,26.23
2022-10-29T12:01:00.143Z,26.23
2022-10-29T12:02:23.244Z,26.66
2022-10-29T12:03:55.730Z,26.48
2022-10-29T12:05:16.774Z,26.48
2022-10-29T12:07:04.755Z,26.80
2022-10-29T12:08:33.340Z,26.97
2022-10-29T12:09:49.350Z,27.13
2022-10-29T12:10:57.720Z,28.23
2022-10-29T12:12:27.427Z,27.12
2022-10-29T12:13:47.651Z,26.63
2022-10-29T12:15:09.403Z,27.16
2022-10-29T12:16:16.883Z,26.81
2022-10-29T12:17:30.058Z,26.91
2022-10-29T12:18:42.572Z,27.34
2022-10-29T12:21:26.331Z,27.58
2022-10-29T12:22:52.553Z,27.63
2022-10-29T12:24:21.997Z,27.38
2022-10-29T12:25:26.489Z,28.16
2022-10-29T12:26:55.097Z,28.02
2022-10-29T12:27:56.721Z,27.82
2022-10-29T12:29:02.362Z,27.63
2022-10-29T12:30:06.918Z,27.79
2022-10-29T12:31:11.627Z,29.72
2022-10-29T12:32:32.292Z,27.07
2022-10-29T12:34:03.278Z,27.96
2022-10-29T12:35:15.251Z,27.37
2022-10-29T12:36:28.746Z,27.98
2022-10-29T12:38:02.671Z,28.00
2022-10-29T12:39:12.251Z,27.56
2022-10-29T12:40:22.625Z,28.64
2022-10-29T12:41:43.029Z,27.83
2022-10-29T12:42:46.230Z,28.39
2022-10-29T12:43:48.262Z,29.40
2022-10-29T12:45:08.885Z,28.42
2022-10-29T12:47:06.405Z,27.99
2022-10-29T12:48:18.123Z,28.55
2022-10-29T12:49:28.459Z,27.52
2022-10-29T12:50:35.815Z,28.83
2022-10-29T12:52:04.108Z,27.92
2022-10-29T12:53:23.930Z,29.33
2022-10-29T12:54:46.175Z,27.80
2022-10-29T12:55:48.836Z,28.48
2022-10-29T12:56:50.723Z,28.53
2022-10-29T12:57:52.436Z,28.51
2022-10-29T12:58:59.799Z,28.26
2022-10-29T13:00:26.184Z,28.73
2022-10-29T13:01:49.933Z,29.06
2022-10-29T13:02:52.189Z,28.43
2022-10-29T13:03:56.807Z,29.84
2022-10-29T13:05:07.574Z,29.26
2022-10-29T13:06:43.411Z,29.62
2022-10-29T13:07:47.879Z,29.01
2022-10-29T13:08:57.335Z,29.87
2022-10-29T13:10:24.070Z,29.05
2022-10-29T13:11:44.466Z,29.44
2022-10-29T13:12:55.484Z,28.91
2022-10-29T13:13:58.511Z,29.96
2022-10-29T13:15:15.645Z,29.26
2022-10-29T13:16:21.341Z,28.08
2022-10-29T13:17:26.066Z,28.67
2022-10-29T13:18:41.638Z,28.59
2022-10-29T13:20:00.833Z,28.21
2022-10-29T13:21:02.582Z,28.42
2022-10-29T13:22:16.391Z,28.76
2022-10-29T13:23:23.785Z,30.38
2022-10-29T13:24:26.604Z,28.74
2022-10-29T13:25:37.332Z,28.58
2022-10-29T13:27:01.084Z,28.34
2022-10-29T13:28:08.667Z,30.24
2022-10-29T13:29:10.310Z,29.05
2022-10-29T13:30:18.086Z,29.17
2022-10-29T13:31:19.704Z,29.76
2022-10-29T13:32:30.558Z,29.12
2022-10-29T13:33:32.170Z,30.19
2022-10-29T13:34:52.116Z,30.86
2022-10-29T13:36:02.801Z,29.73
2022-10-29T13:37:41.857Z,30.27
2022-10-29T13:38:58.052Z,30.22
2022-10-29T13:40:31.344Z,29.24
2022-10-29T13:41:43.087Z,29.20
2022-10-29T13:42:45.680Z,29.36
2022-10-29T13:44:16.794Z,30.04
2022-10-29T13:45:19.863Z,29.38
2022-10-29T13:47:03.266Z,29.18
2022-10-29T13:48:17.285Z,28.44
2022-10-29T13:49:41.885Z,29.14
2022-10-29T13:50:48.267Z,28.56
2022-10-29T13:51:55.782Z,28.79
2022-10-29T13:53:00.885Z,28.74
2022-10-29T13:54:15.072Z,28.77
2022-10-29T13:55:19.644Z,28.53
2022-10-29T13:56:46.910Z,29.21
2022-10-29T13:57:55.089Z,29.41
2022-10-29T13:59:00.485Z,29.44
2022-10-29T14:00:06.729Z,29.97
2022-10-29T14:01:14.437Z,29.91
2022-10-29T14:02:36.860Z,29.79
2022-10-29T14:03:50.578Z,29.74
2022-10-29T14:04:57.160Z,29.47
2022-10-29T14:06:20.629Z,29.52
2022-10-29T14:07:29.137Z,29.86
2022-10-29T14:08:33.521Z,29.70
2022-10-29T14:09:46.495Z,30.24
2022-10-29T14:10:52.141Z,30.08
2022-10-29T14:12:03.109Z,30.07
2022-10-29T14:13:10.833Z,30.09
2022-10-29T14:14:51.017Z,30.26
2022-10-29T14:16:07.725Z,30.29
2022-10-29T14:17:17.465Z,30.54
2022-10-29T14:18:25.226Z,30.68
2022-10-29T14:19:27.055Z,31.01
2022-10-29T14:20:29.705Z,30.86
2022-10-29T14:21:38.253Z,31.04
2022-10-29T14:22:41.121Z,31.03
2022-10-29T14:24:01.855Z,31.01
2022-10-29T14:25:29.418Z,31.21
2022-10-29T14:26:34.051Z,31.14
2022-10-29T14:27:35.780Z,31.56
2022-10-29T14:28:37.486Z,31.45
2022-10-29T14:29:39.595Z,31.48
2022-10-29T14:30:41.280Z,31.62
2022-10-29T14:31:42.961Z,32.89
2022-10-29T14:32:46.485Z,32.35
2022-10-29T14:33:59.632Z,32.55
2022-10-29T14:35:01.294Z,32.59
2022-10-29T14:36:09.173Z,32.34